createdAt,value
2022-09-09T00:00:55.509Z,90.50
2022-09-09T00:03:53.910Z,90.50
2022-09-09T00:06:36.889Z,90.40
2022-09-09T00:09:20.336Z,90.40
2022-09-09T00:12:09.599Z,90.50
2022-09-09T00:14:56.163Z,90.50
2022-09-09T00:18:02.189Z,90.50
2022-09-09T00:21:19.941Z,90.50
2022-09-09T00:23:55.454Z,90.40
2022-09-09T00:26:35.032Z,90.40
2022-09-09T00:29:08.480Z,90.30
2022-09-09T00:31:36.022Z,90.30
2022-09-09T00:34:18.278Z,90.30
2022-09-09T00:36:46.410Z,90.30
2022-09-09T00:39:39.304Z,90.30
2022-09-09T00:42:25.231Z,90.40
2022-09-09T00:45:29.063Z,90.50
2022-09-09T00:47:57.905Z,90.40
2022-09-09T00:50:31.034Z,90.30
2022-09-09T00:53:03.212Z,90.30
2022-09-09T00:55:56.085Z,90.30
2022-09-09T00:58:23.094Z,90.30
2022-09-09T01:01:02.353Z,90.20
2022-09-09T01:03:41.881Z,90.20
2022-09-09T01:06:30.289Z,90.20
2022-09-09T01:09:18.977Z,90.50
2022-09-09T01:12:18.928Z,90.30
2022-09-09T01:14:55.151Z,90.10
2022-09-09T01:17:31.351Z,90.10
2022-09-09T01:20:07.373Z,89.70
2022-09-09T01:23:02.366Z,89.60
2022-09-09T01:26:05.514Z,89.90
2022-09-09T01:28:36.631Z,90.10
2022-09-09T01:31:12.987Z,90.20
2022-09-09T01:33:44.603Z,90.30
2022-09-09T01:36:35.659Z,90.40
2022-09-09T01:39:02.929Z,90.50
2022-09-09T01:41:29.981Z,90.50
2022-09-09T01:44:04.076Z,90.40
2022-09-09T01:46:33.576Z,90.50
2022-09-09T01:49:02.850Z,90.50
2022-09-09T01:51:30.289Z,90.50
2022-09-09T01:54:01.421Z,90.50
2022-09-09T01:56:34.196Z,90.50
2022-09-09T01:59:07.316Z,90.40
2022-09-09T02:01:40.548Z,90.30
2022-09-09T02:04:38.705Z,90.30
2022-09-09T02:07:49.686Z,90.40
2022-09-09T02:10:47.165Z,90.60
2022-09-09T02:13:23.920Z,90.60
2022-09-09T02:16:04.076Z,90.60
2022-09-09T02:18:49.952Z,90.70
2022-09-09T02:21:19.939Z,90.80
2022-09-09T02:23:50.464Z,90.90
2022-09-09T02:26:21.310Z,90.90
2022-09-09T02:28:54.278Z,90.80
2022-09-09T02:31:25.501Z,90.80
2022-09-09T02:34:01.632Z,90.80
2022-09-09T02:36:34.455Z,91.00
2022-09-09T02:39:02.384Z,91.10
2022-09-09T02:41:38.701Z,91.20
2022-09-09T02:44:18.463Z,91.10
2022-09-09T02:47:09.703Z,91.00
2022-09-09T02:49:50.566Z,91.00
2022-09-09T02:52:31.400Z,91.20
2022-09-09T02:55:05.718Z,91.20
2022-09-09T02:57:34.311Z,91.20
2022-09-09T03:00:02.688Z,91.10
2022-09-09T03:02:32.325Z,91.00
2022-09-09T03:05:04.738Z,91.10
2022-09-09T03:07:31.778Z,91.00
2022-09-09T03:09:59.325Z,90.70
2022-09-09T03:12:28.162Z,90.60
2022-09-09T03:14:55.356Z,90.90
2022-09-09T03:17:22.342Z,90.70
2022-09-09T03:19:55.494Z,90.80
2022-09-09T03:22:23.108Z,90.90
2022-09-09T03:24:50.315Z,91.00
2022-09-09T03:27:18.433Z,91.00
2022-09-09T03:29:46.158Z,91.00
2022-09-09T03:32:18.951Z,91.00
2022-09-09T03:34:48.607Z,91.10
2022-09-09T03:37:16.671Z,91.10
2022-09-09T03:39:43.731Z,91.00
2022-09-09T03:42:15.849Z,91.00
2022-09-09T03:44:43.009Z,91.00
2022-09-09T03:47:10.444Z,91.10
2022-09-09T03:49:38.133Z,91.20
2022-09-09T03:52:05.602Z,91.20
2022-09-09T03:54:32.782Z,91.10
2022-09-09T03:56:59.724Z,91.10
2022-09-09T03:59:27.416Z,91.10
2022-09-09T04:01:55.876Z,91.10
2022-09-09T04:04:23.326Z,91.10
2022-09-09T04:06:51.948Z,91.00
2022-09-09T04:09:19.029Z,91.00
2022-09-09T04:11:47.125Z,91.10
2022-09-09T04:14:15.288Z,91.10
2022-09-09T04:16:44.228Z,91.10
2022-09-09T04:19:14.675Z,90.90
2022-09-09T04:21:43.481Z,90.40
2022-09-09T04:24:10.707Z,90.30
2022-09-09T04:26:38.342Z,90.60
2022-09-09T04:29:06.056Z,91.00
2022-09-09T04:31:33.530Z,91.40
2022-09-09T04:34:06.226Z,91.60
2022-09-09T04:36:34.157Z,91.80
2022-09-09T04:39:04.397Z,91.90
2022-09-09T04:41:32.444Z,92.20
2022-09-09T04:44:01.766Z,92.40
2022-09-09T04:46:29.143Z,92.40
2022-09-09T04:48:57.830Z,92.50
2022-09-09T04:51:29.268Z,92.50
2022-09-09T04:53:56.312Z,92.50
2022-09-09T04:56:23.726Z,92.60
2022-09-09T04:58:53.548Z,92.60
2022-09-09T05:01:25.377Z,92.60
2022-09-09T05:03:54.511Z,92.70
2022-09-09T05:06:23.741Z,92.90
2022-09-09T05:08:56.718Z,92.90
2022-09-09T05:11:31.988Z,93.00
2022-09-09T05:14:08.140Z,93.00
2022-09-09T05:16:36.254Z,93.10
2022-09-09T05:19:04.351Z,93.20
2022-09-09T05:21:42.674Z,93.30
2022-09-09T05:24:09.919Z,93.30
2022-09-09T05:26:37.072Z,93.40
2022-09-09T05:29:04.054Z,93.40
2022-09-09T05:31:32.249Z,93.40
2022-09-09T05:34:03.332Z,93.30
2022-09-09T05:36:30.361Z,93.30
2022-09-09T05:38:57.901Z,93.40
2022-09-09T05:41:27.443Z,93.50
2022-09-09T05:43:57.007Z,93.60
2022-09-09T05:46:26.244Z,93.70
2022-09-09T05:48:55.304Z,93.80
2022-09-09T05:51:33.127Z,93.90
2022-09-09T05:54:05.266Z,94.00
2022-09-09T05:56:35.479Z,94.00
2022-09-09T05:59:02.890Z,94.00
2022-09-09T06:01:32.797Z,94.10
2022-09-09T06:04:01.466Z,94.40
2022-09-09T06:06:33.101Z,94.20
2022-09-09T06:09:00.811Z,94.30
2022-09-09T06:11:35.478Z,94.30
2022-09-09T06:14:02.604Z,94.40
2022-09-09T06:16:33.634Z,94.40
2022-09-09T06:19:02.156Z,94.40
2022-09-09T06:21:38.275Z,94.40
2022-09-09T06:24:11.277Z,94.30
2022-09-09T06:26:43.596Z,94.20
2022-09-09T06:29:13.847Z,94.20
2022-09-09T06:31:43.015Z,94.20
2022-09-09T06:34:21.199Z,94.30
2022-09-09T06:36:52.186Z,94.20
2022-09-09T06:39:19.186Z,94.20
2022-09-09T06:41:47.014Z,94.10
2022-09-09T06:44:40.058Z,94.10
2022-09-09T06:47:12.024Z,94.00
2022-09-09T06:49:40.736Z,93.80
2022-09-09T06:52:10.558Z,93.70
2022-09-09T06:54:38.495Z,93.80
2022-09-09T06:57:27.125Z,94.00
2022-09-09T06:59:56.813Z,93.90
2022-09-09T07:02:24.813Z,93.80
2022-09-09T07:04:52.649Z,93.90
2022-09-09T07:07:20.919Z,94.10
2022-09-09T07:09:48.114Z,94.00
2022-09-09T07:12:15.676Z,94.20
2022-09-09T07:14:50.512Z,94.20
2022-09-09T07:17:17.511Z,94.30
2022-09-09T07:19:44.797Z,94.30
2022-09-09T07:22:11.751Z,94.10
2022-09-09T07:24:39.618Z,94.00
2022-09-09T07:27:07.122Z,94.10
2022-09-09T07:29:35.759Z,93.80
2022-09-09T07:32:04.811Z,93.60
2022-09-09T07:34:36.076Z,93.50
2022-09-09T07:37:03.357Z,93.40
2022-09-09T07:39:31.701Z,93.50
2022-09-09T07:41:59.776Z,93.60
2022-09-09T07:44:28.024Z,93.60
2022-09-09T07:47:05.224Z,93.50
2022-09-09T07:49:37.420Z,93.40
2022-09-09T07:54:34.521Z,93.30
2022-09-09T07:57:05.275Z,92.70
2022-09-09T07:59:34.656Z,91.70
2022-09-09T08:02:02.576Z,91.70
2022-09-09T08:04:32.299Z,91.40
2022-09-09T08:07:02.022Z,91.50
2022-09-09T08:09:33.323Z,91.30
2022-09-09T08:12:17.406Z,91.30
2022-09-09T08:14:44.903Z,91.20
2022-09-09T08:17:12.022Z,91.10
2022-09-09T08:19:39.429Z,90.60
2022-09-09T08:22:11.804Z,90.50
2022-09-09T08:24:40.709Z,90.30
2022-09-09T08:27:08.626Z,90.10
2022-09-09T08:29:35.636Z,87.40
2022-09-09T08:32:03.375Z,84.50
2022-09-09T08:34:32.295Z,84.50
2022-09-09T08:37:02.847Z,84.30
2022-09-09T08:39:35.617Z,81.80
2022-09-09T08:42:35.176Z,79.60
2022-09-09T08:45:30.498Z,78.30
2022-09-09T08:48:27.595Z,77.50
2022-09-09T08:51:01.509Z,77.80
2022-09-09T08:53:47.658Z,77.90
2022-09-09T08:56:20.013Z,77.00
2022-09-09T08:58:52.270Z,75.60
2022-09-09T09:01:51.469Z,75.40
2022-09-09T09:04:43.190Z,73.90
2022-09-09T09:07:13.341Z,72.40
2022-09-09T09:10:40.035Z,71.40
2022-09-09T09:13:16.927Z,71.30
2022-09-09T09:15:48.051Z,70.60
2022-09-09T09:18:17.001Z,69.50
2022-09-09T09:21:06.276Z,68.90
2022-09-09T09:24:10.309Z,67.50
2022-09-09T09:26:38.401Z,66.90
2022-09-09T09:29:19.986Z,65.50
2022-09-09T09:31:53.464Z,64.60
2022-09-09T09:34:20.454Z,64.30
2022-09-09T09:36:54.353Z,63.50
2022-09-09T09:42:28.377Z,60.80
2022-09-09T09:45:08.023Z,60.40
2022-09-09T09:47:35.192Z,59.30
2022-09-09T09:50:21.492Z,57.10
2022-09-09T09:53:00.147Z,57.00
2022-09-09T09:55:32.181Z,57.00
2022-09-09T09:58:06.965Z,55.40
2022-09-09T10:00:38.101Z,54.40
2022-09-09T10:03:29.611Z,54.80
2022-09-09T10:05:57.948Z,53.60
2022-09-09T10:08:28.750Z,53.10
2022-09-09T10:11:07.988Z,53.80
2022-09-09T10:13:58.804Z,52.50
2022-09-09T10:16:47.513Z,52.70
2022-09-09T10:19:20.205Z,51.70
2022-09-09T10:22:18.268Z,50.20
2022-09-09T10:25:13.001Z,50.90
2022-09-09T10:28:03.972Z,52.70
2022-09-09T10:30:44.621Z,52.20
2022-09-09T10:33:20.113Z,52.40
2022-09-09T10:35:58.101Z,50.20
2022-09-09T10:38:35.304Z,49.00
2022-09-09T10:41:11.252Z,49.90
2022-09-09T10:44:01.714Z,48.90
2022-09-09T10:46:40.651Z,48.70
2022-09-09T10:49:26.134Z,48.00
2022-09-09T10:52:12.014Z,46.70
2022-09-09T10:54:54.753Z,47.20
2022-09-09T10:57:38.490Z,47.70
2022-09-09T11:00:15.776Z,47.70
2022-09-09T11:02:43.162Z,48.90
2022-09-09T11:05:41.155Z,47.50
2022-09-09T11:08:20.815Z,47.40
2022-09-09T11:11:01.505Z,47.60
2022-09-09T11:13:44.339Z,47.90
2022-09-09T11:16:31.786Z,46.70
2022-09-09T11:19:04.819Z,46.90
2022-09-09T11:21:48.392Z,46.80
2022-09-09T11:24:20.180Z,44.20
2022-09-09T11:26:59.163Z,44.60
2022-09-09T11:29:26.440Z,43.70
2022-09-09T11:32:22.728Z,44.00
2022-09-09T11:35:22.024Z,44.00
2022-09-09T11:38:01.093Z,44.20
2022-09-09T11:40:29.544Z,45.30
2022-09-09T11:43:05.949Z,46.30
2022-09-09T11:45:36.725Z,45.70
2022-09-09T11:48:07.006Z,45.00
2022-09-09T11:50:38.630Z,45.10
2022-09-09T11:53:24.649Z,45.80
2022-09-09T11:56:16.917Z,45.80
2022-09-09T11:59:00.554Z,47.40
2022-09-09T12:01:35.021Z,44.70
2022-09-09T12:04:29.882Z,45.20
2022-09-09T12:07:04.901Z,45.80
2022-09-09T12:09:34.601Z,46.10
2022-09-09T12:12:13.619Z,45.30
2022-09-09T12:14:44.304Z,45.00
2022-09-09T12:17:17.095Z,44.10
2022-09-09T12:19:44.078Z,44.00
2022-09-09T12:22:50.716Z,43.30
2022-09-09T12:25:37.609Z,51.20
2022-09-09T12:28:18.864Z,52.50
2022-09-09T12:31:11.093Z,53.40
2022-09-09T12:33:44.153Z,54.20
2022-09-09T12:36:33.801Z,55.10
2022-09-09T12:39:18.037Z,55.30
2022-09-09T12:41:57.701Z,55.40
2022-09-09T12:44:30.926Z,55.50
2022-09-09T12:47:01.667Z,55.20
2022-09-09T12:49:36.578Z,56.90
2022-09-09T12:52:07.076Z,56.80
2022-09-09T12:54:37.317Z,56.10
2022-09-09T12:57:06.082Z,57.20
2022-09-09T12:59:38.911Z,56.00
2022-09-09T13:02:18.702Z,55.00
2022-09-09T13:04:47.951Z,55.30
2022-09-09T13:07:17.410Z,55.70
2022-09-09T13:09:45.914Z,54.50
2022-09-09T13:12:20.551Z,53.70
2022-09-09T13:14:54.085Z,51.80
2022-09-09T13:17:30.047Z,52.90
2022-09-09T13:19:58.036Z,54.20
2022-09-09T13:22:35.365Z,53.90
2022-09-09T13:25:12.441Z,54.20
2022-09-09T13:27:53.912Z,53.40
2022-09-09T13:30:23.994Z,53.30
2022-09-09T13:33:15.659Z,52.80
2022-09-09T13:35:56.208Z,53.30
2022-09-09T13:38:27.730Z,54.70
2022-09-09T13:41:04.290Z,54.00
2022-09-09T13:43:36.730Z,54.60
2022-09-09T13:46:07.289Z,54.40
2022-09-09T13:48:34.292Z,53.90
2022-09-09T13:51:06.254Z,54.70
2022-09-09T13:53:33.518Z,54.90
2022-09-09T13:56:00.924Z,54.00
2022-09-09T13:58:27.990Z,55.10
2022-09-09T14:00:55.563Z,54.60
2022-09-09T14:03:22.680Z,54.70
2022-09-09T14:05:49.929Z,55.20
2022-09-09T14:08:23.604Z,55.70
2022-09-09T14:10:50.632Z,55.30
2022-09-09T14:13:17.542Z,54.90
2022-09-09T14:15:44.682Z,54.60
2022-09-09T14:18:14.912Z,54.50
2022-09-09T14:20:41.859Z,54.50
2022-09-09T14:23:12.617Z,54.70
2022-09-09T14:25:42.357Z,54.70
2022-09-09T14:28:11.570Z,54.00
2022-09-09T14:30:40.771Z,54.30
2022-09-09T14:33:09.624Z,54.20
2022-09-09T14:35:37.253Z,54.20
2022-09-09T14:38:05.727Z,54.60
2022-09-09T14:40:32.869Z,53.90
2022-09-09T14:43:00.242Z,54.10
2022-09-09T14:45:27.266Z,55.00
2022-09-09T14:47:54.289Z,54.20
2022-09-09T14:50:22.471Z,54.20
2022-09-09T14:52:49.485Z,54.10
2022-09-09T14:55:16.645Z,55.10
2022-09-09T14:57:44.037Z,54.70
2022-09-09T15:00:13.366Z,55.40
2022-09-09T15:02:40.860Z,55.80
2022-09-09T15:05:08.357Z,55.70
2022-09-09T15:07:35.351Z,55.20
2022-09-09T15:10:02.346Z,54.00
2022-09-09T15:12:29.457Z,54.20
2022-09-09T15:14:56.845Z,54.20
2022-09-09T15:17:25.559Z,54.80
2022-09-09T15:19:53.192Z,55.50
2022-09-09T15:22:20.130Z,55.20
2022-09-09T15:24:47.084Z,55.00
2022-09-09T15:27:15.623Z,54.80
2022-09-09T15:29:43.143Z,54.50
2022-09-09T15:32:10.061Z,54.50
2022-09-09T15:34:37.011Z,54.80
2022-09-09T15:37:04.014Z,55.70
2022-09-09T15:39:31.612Z,56.10
2022-09-09T15:42:01.504Z,55.80
2022-09-09T15:44:28.422Z,56.00
2022-09-09T15:46:55.417Z,56.20
2022-09-09T15:49:27.177Z,56.10
2022-09-09T15:51:59.292Z,55.60
2022-09-09T15:54:27.481Z,55.40
2022-09-09T15:56:57.075Z,55.50
2022-09-09T15:59:25.430Z,55.00
2022-09-09T16:01:52.990Z,55.60
2022-09-09T16:04:26.786Z,55.60
2022-09-09T16:06:59.473Z,55.60
2022-09-09T16:09:27.813Z,56.00
2022-09-09T16:11:57.764Z,55.90
2022-09-09T16:14:26.419Z,55.40
2022-09-09T16:16:53.504Z,54.40
2022-09-09T16:19:20.686Z,55.40
2022-09-09T16:21:49.689Z,55.60
2022-09-09T16:24:21.443Z,55.60
2022-09-09T16:26:51.262Z,56.10
2022-09-09T16:29:19.671Z,56.00
2022-09-09T16:31:47.999Z,56.30
2022-09-09T16:34:16.539Z,57.30
2022-09-09T16:36:44.736Z,57.40
2022-09-09T16:39:17.134Z,58.10
2022-09-09T16:41:45.736Z,58.90
2022-09-09T16:44:15.010Z,59.50
2022-09-09T16:46:43.686Z,60.00
2022-09-09T16:49:13.278Z,60.40
2022-09-09T16:51:50.763Z,60.90
2022-09-09T16:54:18.926Z,60.90
2022-09-09T16:56:48.050Z,60.60
2022-09-09T16:59:17.724Z,61.10
2022-09-09T17:01:46.583Z,61.70
2022-09-09T17:04:25.102Z,61.80
2022-09-09T17:06:54.312Z,61.60
2022-09-09T17:09:23.474Z,61.70
2022-09-09T17:11:54.131Z,61.90
2022-09-09T17:14:24.804Z,62.40
2022-09-09T17:16:51.869Z,62.80
2022-09-09T17:19:19.340Z,63.00
2022-09-09T17:22:15.430Z,63.20
2022-09-09T17:24:35.469Z,63.40
2022-09-09T17:27:03.240Z,63.60
2022-09-09T17:29:30.369Z,64.10
2022-09-09T17:31:57.520Z,64.30
2022-09-09T17:34:25.166Z,64.20
2022-09-09T17:36:53.149Z,64.20
2022-09-09T17:39:20.320Z,64.40
2022-09-09T17:41:47.577Z,64.40
2022-09-09T17:44:14.534Z,64.50
2022-09-09T17:46:43.256Z,64.60
2022-09-09T17:49:15.444Z,64.90
2022-09-09T17:51:43.912Z,65.30
2022-09-09T17:54:20.945Z,65.60
2022-09-09T17:56:48.984Z,66.10
2022-09-09T17:59:17.711Z,66.30
2022-09-09T18:01:47.273Z,66.90
2022-09-09T18:04:16.381Z,67.30
2022-09-09T18:06:46.013Z,67.60
2022-09-09T18:09:19.701Z,68.20
2022-09-09T18:11:51.208Z,68.90
2022-09-09T18:14:21.418Z,69.30
2022-09-09T18:16:49.919Z,69.50
2022-09-09T18:19:21.207Z,69.50
2022-09-09T18:21:49.318Z,69.80
2022-09-09T18:24:17.767Z,70.00
2022-09-09T18:26:45.625Z,70.20
2022-09-09T18:29:15.853Z,70.40
2022-09-09T18:31:43.256Z,70.80
2022-09-09T18:34:13.018Z,71.00
2022-09-09T18:36:46.956Z,71.30
2022-09-09T18:39:16.283Z,71.30
2022-09-09T18:41:52.546Z,71.40
2022-09-09T18:44:22.748Z,71.40
2022-09-09T18:46:50.628Z,71.50
2022-09-09T18:49:17.971Z,71.50
2022-09-09T18:51:46.581Z,71.40
2022-09-09T18:54:16.818Z,71.40
2022-09-09T18:56:44.458Z,71.70
2022-09-09T18:59:15.092Z,71.40
2022-09-09T19:01:42.946Z,71.10
2022-09-09T19:04:10.110Z,71.10
2022-09-09T19:06:40.767Z,71.30
2022-09-09T19:09:11.318Z,71.40
2022-09-09T19:11:38.857Z,71.20
2022-09-09T19:14:10.719Z,71.30
2022-09-09T19:16:39.243Z,71.60
2022-09-09T19:19:15.683Z,71.80
2022-09-09T19:21:43.737Z,71.70
2022-09-09T19:24:20.314Z,71.90
2022-09-09T19:26:51.154Z,72.10
2022-09-09T19:29:23.203Z,72.30
2022-09-09T19:32:18.962Z,72.50
2022-09-09T19:34:38.503Z,72.60
2022-09-09T19:37:05.755Z,72.70
2022-09-09T19:39:34.627Z,72.50
2022-09-09T19:42:02.063Z,72.30
2022-09-09T19:44:29.393Z,72.50
2022-09-09T19:46:56.343Z,72.80
2022-09-09T19:49:23.444Z,72.80
2022-09-09T19:51:50.455Z,73.10
2022-09-09T19:54:17.411Z,73.30
2022-09-09T19:56:44.677Z,73.80
2022-09-09T19:59:13.416Z,74.10
2022-09-09T20:01:44.629Z,74.40
2022-09-09T20:04:12.880Z,74.60
2022-09-09T20:06:42.220Z,74.80
2022-09-09T20:09:14.916Z,75.10
2022-09-09T20:11:43.246Z,74.80
2022-09-09T20:14:11.674Z,74.70
2022-09-09T20:16:39.602Z,75.10
2022-09-09T20:19:08.171Z,75.40
2022-09-09T20:21:38.383Z,75.50
2022-09-09T20:24:10.982Z,75.60
2022-09-09T20:26:38.019Z,75.80
2022-09-09T20:29:15.750Z,75.60
2022-09-09T20:31:45.023Z,75.80
2022-09-09T20:34:16.016Z,76.00
2022-09-09T20:36:43.339Z,76.00
2022-09-09T20:39:15.052Z,76.20
2022-09-09T20:41:44.419Z,76.60
2022-09-09T20:44:17.324Z,76.60
2022-09-09T20:46:49.883Z,76.70
2022-09-09T20:49:19.829Z,76.80
2022-09-09T20:51:49.929Z,76.90
2022-09-09T20:54:23.535Z,77.00
2022-09-09T20:56:52.356Z,77.40
2022-09-09T20:59:22.244Z,77.80
2022-09-09T21:01:50.100Z,78.10
2022-09-09T21:04:19.717Z,78.30
2022-09-09T21:06:49.179Z,78.60
2022-09-09T21:09:17.842Z,78.80
2022-09-09T21:11:44.906Z,78.90
2022-09-09T21:14:12.595Z,79.10
2022-09-09T21:16:39.601Z,79.30
2022-09-09T21:19:06.835Z,79.30
2022-09-09T21:21:33.962Z,79.40
2022-09-09T21:24:01.011Z,79.50
2022-09-09T21:26:28.665Z,80.00
2022-09-09T21:28:56.343Z,80.40
2022-09-09T21:31:27.917Z,80.60
2022-09-09T21:33:57.221Z,80.90
2022-09-09T21:36:25.465Z,81.10
2022-09-09T21:38:52.411Z,81.30
2022-09-09T21:41:19.519Z,81.30
2022-09-09T21:43:51.331Z,81.20
2022-09-09T21:46:18.505Z,81.20
2022-09-09T21:48:45.551Z,81.00
2022-09-09T21:51:14.996Z,81.50
2022-09-09T21:53:41.981Z,82.70
2022-09-09T21:56:17.403Z,82.70
2022-09-09T21:58:45.079Z,83.00
2022-09-09T22:01:15.859Z,83.00
2022-09-09T22:03:43.797Z,83.10
2022-09-09T22:06:14.272Z,83.00
2022-09-09T22:08:41.244Z,83.00
2022-09-09T22:11:14.001Z,83.10
2022-09-09T22:13:42.574Z,83.10
2022-09-09T22:16:12.402Z,83.10
2022-09-09T22:18:40.493Z,83.10
2022-09-09T22:21:16.573Z,83.20
2022-09-09T22:23:43.866Z,83.60
2022-09-09T22:26:11.063Z,83.90
2022-09-09T22:28:38.824Z,84.20
2022-09-09T22:31:06.125Z,84.60
2022-09-09T22:33:33.708Z,85.00
2022-09-09T22:36:00.694Z,85.20
2022-09-09T22:38:27.651Z,85.70
2022-09-09T22:40:54.869Z,85.90
2022-09-09T22:43:22.902Z,86.20
2022-09-09T22:45:50.927Z,87.40
2022-09-09T22:48:18.431Z,88.00
2022-09-09T22:50:45.739Z,88.60
2022-09-09T22:53:18.702Z,88.90
2022-09-09T22:55:59.413Z,89.30
2022-09-09T22:58:29.164Z,89.60
2022-09-09T23:00:59.930Z,89.60
2022-09-09T23:03:28.877Z,90.00
2022-09-09T23:06:00.689Z,90.20
2022-09-09T23:08:33.865Z,90.40
2022-09-09T23:11:03.960Z,90.30
2022-09-09T23:13:33.183Z,90.40
2022-09-09T23:16:03.926Z,90.60
2022-09-09T23:18:31.142Z,90.60
2022-09-09T23:21:01.356Z,90.60
2022-09-09T23:23:28.834Z,90.60
2022-09-09T23:25:55.761Z,90.70
2022-09-09T23:28:22.716Z,91.00
2022-09-09T23:30:50.803Z,90.80
2022-09-09T23:33:17.846Z,90.80
2022-09-09T23:35:44.861Z,90.90
2022-09-09T23:38:11.732Z,90.80
2022-09-09T23:40:39.944Z,90.90
2022-09-09T23:43:07.182Z,90.80
2022-09-09T23:45:34.228Z,90.80
2022-09-09T23:48:01.143Z,90.80
2022-09-09T23:50:28.191Z,90.70
2022-09-09T23:52:55.083Z,90.60
2022-09-09T23:55:23.879Z,90.60
2022-09-09T23:57:51.148Z,90.60
